Time;durP1;ratioP1;P1;durP2;ratioP2;P2;SDS_P1;SDS_P2;PMS_P1;PMS_P2;Temp;Humidity;BMP_temperature;BMP_pressure;BME280_temperature;BME280_humidity;BME280_pressure;Samples;Min_cycle;Max_cycle;Signal;HPM_P1;HPM_P2
2023/06/19 00:00:56;;;;;;;8.50;7.57;;;23.30;59.10;;;;;;10322750;28;20062;-57
2023/06/19 00:05:57;;;;;;;7.50;6.80;;;23.30;59.10;;;;;;10323879;28;20026;-59
2023/06/19 00:10:58;;;;;;;7.05;6.35;;;23.30;59.00;;;;;;10323620;28;20045;-60
2023/06/19 00:16:00;;;;;;;7.70;7.00;;;23.30;59.00;;;;;;10323774;28;20011;-59
2023/06/19 00:21:00;;;;;;;7.43;6.68;;;23.20;58.90;;;;;;10323005;28;20058;-60
2023/06/19 00:26:01;;;;;;;7.50;6.70;;;23.30;59.00;;;;;;10321625;28;20106;-58
2023/06/19 00:31:02;;;;;;;7.95;7.15;;;23.20;59.00;;;;;;10321591;28;20031;-60
2023/06/19 00:36:08;;;;;;;7.90;6.95;;;23.20;59.00;;;;;;10321087;28;20133;-61
2023/06/19 00:41:09;;;;;;;7.63;6.65;;;23.30;59.10;;;;;;10321446;28;20064;-61
2023/06/19 00:46:11;;;;;;;8.70;7.90;;;23.30;59.10;;;;;;10321117;28;20010;-60
2023/06/19 00:51:11;;;;;;;7.30;6.60;;;23.30;59.20;;;;;;10320714;28;20026;-60
2023/06/19 00:56:12;;;;;;;7.40;6.70;;;23.30;59.20;;;;;;10322480;28;20026;-60
2023/06/19 01:01:13;;;;;;;7.50;6.80;;;23.30;59.20;;;;;;10304614;28;20692;-59
2023/06/19 01:06:21;;;;;;;7.63;6.93;;;23.20;59.10;;;;;;10321876;28;20034;-58
2023/06/19 01:11:28;;;;;;;7.90;7.13;;;23.20;59.10;;;;;;10321020;28;20048;-59
2023/06/19 01:16:31;;;;;;;7.78;7.00;;;23.30;59.20;;;;;;10321084;28;20594;-58
2023/06/19 01:21:32;;;;;;;7.60;6.82;;;23.20;59.20;;;;;;10320200;28;20077;-61
2023/06/19 01:26:33;;;;;;;7.25;6.55;;;23.20;59.20;;;;;;10320817;28;20098;-60
2023/06/19 01:31:50;;;;;;;7.68;6.88;;;23.20;59.20;;;;;;10320407;28;20057;-59
2023/06/19 01:36:52;;;;;;;7.45;6.75;;;23.20;59.20;;;;;;10319865;28;20046;-60
2023/06/19 01:41:54;;;;;;;7.20;6.20;;;23.20;59.20;;;;;;10320202;28;20545;-60
2023/06/19 01:46:55;;;;;;;7.47;6.63;;;23.20;59.20;;;;;;10320146;28;20046;-61
2023/06/19 01:51:57;;;;;;;7.80;7.10;;;23.20;59.20;;;;;;10321220;28;20041;-60
2023/06/19 01:56:58;;;;;;;7.00;6.35;;;23.20;59.30;;;;;;10320164;28;20030;-59
2023/06/19 02:01:59;;;;;;;6.43;5.80;;;23.20;59.30;;;;;;10322992;28;20084;-60
2023/06/19 02:07:00;;;;;;;7.18;6.03;;;23.20;59.30;;;;;;10327794;28;20094;-59
2023/06/19 02:12:00;;;;;;;7.20;5.85;;;23.20;59.30;;;;;;10327975;28;20023;-60
2023/06/19 02:17:01;;;;;;;7.03;6.32;;;23.20;59.30;;;;;;10327521;28;20113;-60
2023/06/19 02:22:02;;;;;;;7.03;6.32;;;23.10;59.30;;;;;;10310283;28;20050;-60
2023/06/19 02:27:03;;;;;;;6.88;6.18;;;23.20;59.40;;;;;;10326298;28;20101;-60
2023/06/19 02:32:04;;;;;;;6.43;5.13;;;23.20;59.40;;;;;;10325491;28;20032;-60
2023/06/19 02:37:05;;;;;;;7.57;6.50;;;23.10;59.40;;;;;;10325482;28;20038;-60
2023/06/19 02:42:06;;;;;;;7.75;6.55;;;23.10;59.50;;;;;;10326628;28;20023;-58
2023/06/19 02:47:07;;;;;;;6.65;6.05;;;23.10;59.60;;;;;;10325146;28;20022;-60
2023/06/19 02:52:08;;;;;;;5.80;5.18;;;23.10;59.60;;;;;;10325389;28;20038;-60
2023/06/19 02:57:09;;;;;;;5.90;4.85;;;23.10;59.60;;;;;;10325858;28;20026;-58
2023/06/19 03:02:10;;;;;;;6.07;5.05;;;23.10;59.70;;;;;;10325936;28;20065;-61
2023/06/19 03:07:11;;;;;;;5.10;4.60;;;23.10;59.70;;;;;;10325655;28;20109;-59
2023/06/19 03:12:13;;;;;;;6.05;5.45;;;23.10;59.80;;;;;;10324780;28;20081;-59
2023/06/19 03:17:14;;;;;;;6.53;5.90;;;23.10;59.90;;;;;;10321402;28;20103;-60
2023/06/19 03:22:15;;;;;;;5.90;5.30;;;23.10;60.00;;;;;;10321933;28;20030;-60
2023/06/19 03:27:15;;;;;;;4.78;4.25;;;23.10;60.00;;;;;;10323799;28;20026;-60
2023/06/19 03:32:16;;;;;;;7.05;4.82;;;23.10;60.10;;;;;;10323450;28;20464;-58
2023/06/19 03:37:17;;;;;;;6.05;4.47;;;23.10;60.20;;;;;;10323051;28;20052;-58
2023/06/19 03:42:18;;;;;;;5.43;4.93;;;23.10;60.10;;;;;;10321283;28;20473;-57
2023/06/19 03:47:18;;;;;;;5.57;4.18;;;23.10;59.80;;;;;;10319882;28;20022;-58
2023/06/19 03:52:19;;;;;;;10.15;5.30;;;23.20;60.00;;;;;;10319433;28;20041;-58
2023/06/19 03:57:20;;;;;;;6.35;5.07;;;23.20;60.20;;;;;;10320873;28;20113;-58
2023/06/19 04:02:20;;;;;;;6.20;5.13;;;23.10;60.10;;;;;;10319491;28;20106;-56
2023/06/19 04:07:21;;;;;;;7.78;4.78;;;23.20;60.50;;;;;;10320399;28;20102;-58
2023/06/19 04:12:22;;;;;;;7.95;4.55;;;23.20;60.80;;;;;;10281541;28;20027;-60
2023/06/19 04:17:23;;;;;;;5.15;4.43;;;23.10;60.70;;;;;;10311595;28;20093;-59
2023/06/19 04:22:24;;;;;;;4.90;4.50;;;23.10;60.60;;;;;;10303802;28;20630;-57
2023/06/19 04:27:24;;;;;;;5.15;4.22;;;23.10;60.60;;;;;;10312164;28;20030;-60
2023/06/19 04:32:25;;;;;;;5.50;4.10;;;23.10;60.80;;;;;;10322332;28;20097;-60
2023/06/19 04:37:26;;;;;;;6.45;4.32;;;23.10;60.80;;;;;;10321982;28;20035;-58
2023/06/19 04:42:27;;;;;;;5.60;4.25;;;23.10;60.90;;;;;;10322070;28;20050;-59
2023/06/19 04:47:28;;;;;;;5.57;4.05;;;23.10;60.90;;;;;;10320886;28;20073;-60
2023/06/19 04:52:28;;;;;;;5.28;4.05;;;23.10;60.90;;;;;;10320965;28;20062;-60
2023/06/19 04:57:29;;;;;;;4.40;3.17;;;23.10;61.00;;;;;;10322194;28;20038;-59
2023/06/19 05:02:30;;;;;;;6.03;4.50;;;23.10;61.00;;;;;;10321807;28;20490;-57
2023/06/19 05:07:31;;;;;;;7.10;4.00;;;23.00;61.00;;;;;;10297129;28;20707;-61
2023/06/19 05:12:32;;;;;;;9.38;3.30;;;23.10;61.50;;;;;;10299744;28;20026;-57
2023/06/19 05:17:32;;;;;;;9.65;4.03;;;23.30;61.90;;;;;;10321757;28;20114;-60
2023/06/19 05:22:34;;;;;;;6.30;3.95;;;23.20;61.80;;;;;;10322200;28;20122;-60
2023/06/19 05:27:34;;;;;;;7.32;3.67;;;23.30;61.90;;;;;;10321716;28;20030;-60
2023/06/19 05:32:35;;;;;;;6.32;3.63;;;23.30;61.90;;;;;;10336884;28;20022;-59
2023/06/19 05:37:37;;;;;;;9.88;5.03;;;23.30;62.10;;;;;;10325716;28;20162;-60
2023/06/19 05:42:39;;;;;;;6.57;3.72;;;23.30;62.00;;;;;;10327969;28;20650;-60
2023/06/19 05:47:40;;;;;;;8.93;4.07;;;23.20;61.90;;;;;;10326597;28;20026;-60
2023/06/19 05:52:43;;;;;;;10.18;4.55;;;23.20;62.30;;;;;;10277751;28;20029;-60
2023/06/19 05:57:43;;;;;;;8.88;4.43;;;23.30;62.20;;;;;;10288012;28;20038;-59
2023/06/19 06:02:44;;;;;;;17.38;4.47;;;23.40;62.20;;;;;;10303116;28;20501;-57
2023/06/19 06:07:45;;;;;;;22.63;5.72;;;23.50;62.50;;;;;;10315258;28;20090;-58
2023/06/19 06:12:45;;;;;;;23.70;4.85;;;23.60;62.50;;;;;;10321164;28;20015;-55
2023/06/19 06:17:46;;;;;;;12.43;4.47;;;23.50;63.00;;;;;;10320598;28;20062;-57
2023/06/19 06:22:47;;;;;;;11.27;4.50;;;23.50;62.80;;;;;;10322569;28;20046;-57
2023/06/19 06:27:47;;;;;;;12.40;4.45;;;23.40;62.60;;;;;;10322540;28;20552;-58
2023/06/19 06:32:48;;;;;;;17.10;5.80;;;23.40;62.70;;;;;;10324808;28;20033;-58
2023/06/19 06:37:49;;;;;;;13.00;4.85;;;23.30;62.70;;;;;;10305878;28;20042;-58
2023/06/19 06:42:50;;;;;;;5.28;3.45;;;23.20;62.50;;;;;;10322855;28;20015;-59
2023/06/19 06:47:51;;;;;;;9.48;3.90;;;23.20;62.70;;;;;;10317575;28;20030;-56
2023/06/19 06:52:51;;;;;;;10.15;4.22;;;23.40;63.00;;;;;;10321268;28;20033;-56
2023/06/19 06:57:52;;;;;;;9.57;4.13;;;23.40;62.90;;;;;;10322672;28;20026;-56
2023/06/19 07:02:53;;;;;;;9.30;4.63;;;23.40;62.80;;;;;;10320823;28;20018;-56
2023/06/19 07:07:53;;;;;;;17.70;4.97;;;23.40;62.90;;;;;;10320945;28;20015;-57
2023/06/19 07:12:54;;;;;;;19.58;5.88;;;23.40;62.80;;;;;;10321969;28;20019;-56
2023/06/19 07:17:56;;;;;;;13.98;5.40;;;23.50;62.80;;;;;;10324658;28;20113;-55
2023/06/19 07:22:57;;;;;;;13.27;3.95;;;23.50;62.60;;;;;;10314245;28;21112;-58
2023/06/19 07:27:57;;;;;;;12.48;4.32;;;23.50;62.60;;;;;;10322087;28;20033;-56
2023/06/19 07:32:58;;;;;;;10.20;4.55;;;23.40;62.50;;;;;;10292063;28;20022;-57
2023/06/19 07:37:59;;;;;;;9.40;4.00;;;23.50;62.90;;;;;;10321262;28;20042;-58
2023/06/19 07:42:59;;;;;;;16.60;5.35;;;23.50;63.30;;;;;;10310454;28;20058;-57
2023/06/19 07:48:00;;;;;;;9.32;4.82;;;23.50;63.20;;;;;;10320157;28;20688;-54
2023/06/19 07:53:00;;;;;;;7.70;3.92;;;23.50;63.00;;;;;;10321375;28;20510;-55
2023/06/19 07:58:02;;;;;;;15.18;4.28;;;23.50;63.30;;;;;;10320164;28;20077;-56
2023/06/19 08:03:02;;;;;;;9.05;5.25;;;23.50;63.30;;;;;;10319472;28;20069;-56
2023/06/19 08:08:03;;;;;;;10.63;4.22;;;23.50;63.30;;;;;;10319373;28;20014;-57
2023/06/19 08:13:04;;;;;;;9.38;4.07;;;23.50;63.10;;;;;;10319214;28;20623;-57
2023/06/19 08:18:05;;;;;;;9.50;4.90;;;23.50;62.90;;;;;;10318811;28;20045;-58
2023/06/19 08:23:05;;;;;;;6.97;4.65;;;23.50;62.90;;;;;;10318553;28;20033;-58
2023/06/19 08:28:06;;;;;;;8.40;4.47;;;23.50;62.80;;;;;;10318857;28;20089;-55
2023/06/19 08:33:07;;;;;;;11.80;4.97;;;23.50;62.70;;;;;;10318561;28;20113;-56
2023/06/19 08:38:07;;;;;;;13.68;5.32;;;23.50;62.50;;;;;;10319864;28;20125;-57
2023/06/19 08:43:08;;;;;;;6.88;4.28;;;23.50;62.60;;;;;;10319106;28;20428;-58
2023/06/19 08:48:13;;;;;;;12.43;4.45;;;23.50;62.50;;;;;;10318154;28;20025;-56
2023/06/19 08:53:14;;;;;;;8.05;4.32;;;23.50;62.60;;;;;;10319460;28;20353;-57
2023/06/19 08:58:23;;;;;;;7.55;4.95;;;23.50;62.60;;;;;;10317737;28;20069;-57
2023/06/19 09:03:24;;;;;;;11.48;5.57;;;23.60;62.70;;;;;;10333964;28;20105;-57
2023/06/19 09:08:25;;;;;;;8.90;4.80;;;23.60;63.80;;;;;;10319686;28;20026;-58
2023/06/19 09:13:28;;;;;;;13.10;4.95;;;23.60;62.70;;;;;;10325698;28;20019;-58
2023/06/19 09:18:31;;;;;;;12.60;4.78;;;23.60;63.10;;;;;;10326988;28;20502;-56
2023/06/19 09:23:32;;;;;;;6.32;4.65;;;23.60;63.10;;;;;;10325804;28;20069;-55
2023/06/19 09:28:32;;;;;;;10.48;5.72;;;23.60;62.70;;;;;;10327037;28;20465;-56
2023/06/19 09:33:35;;;;;;;7.82;4.43;;;23.60;62.80;;;;;;10326387;28;20653;-56
2023/06/19 09:38:38;;;;;;;8.75;4.95;;;23.60;62.50;;;;;;10325172;28;20133;-56
2023/06/19 09:43:43;;;;;;;6.90;4.75;;;23.60;62.50;;;;;;10324757;28;20514;-57
2023/06/19 09:48:46;;;;;;;6.45;4.75;;;23.60;62.30;;;;;;10324642;28;20049;-57
2023/06/19 09:53:49;;;;;;;7.75;5.32;;;23.70;62.20;;;;;;10324717;28;20026;-57
2023/06/19 09:58:53;;;;;;;7.07;5.50;;;23.70;62.00;;;;;;10324207;28;20058;-58
2023/06/19 10:04:06;;;;;;;7.55;4.90;;;23.80;67.30;;;;;;10324174;28;20023;-56
2023/06/19 10:09:08;;;;;;;7.65;5.20;;;23.90;66.70;;;;;;10324033;28;20479;-57
2023/06/19 10:14:09;;;;;;;6.72;5.55;;;23.90;66.50;;;;;;10323475;28;20038;-57
2023/06/19 10:19:20;;;;;;;6.88;5.38;;;23.90;66.30;;;;;;10324720;28;20113;-57
2023/06/19 10:24:25;;;;;;;8.68;4.93;;;23.90;64.50;;;;;;10322479;28;20106;-57
2023/06/19 10:29:27;;;;;;;6.78;5.22;;;23.90;62.70;;;;;;10322927;28;20018;-56
2023/06/19 10:34:35;;;;;;;7.25;5.55;;;23.80;62.50;;;;;;10323743;28;20073;-56
2023/06/19 10:39:36;;;;;;;6.30;4.57;;;23.90;62.60;;;;;;10322911;28;20061;-58
2023/06/19 10:44:37;;;;;;;6.13;4.95;;;23.80;62.50;;;;;;10322386;28;20090;-55
2023/06/19 10:49:38;;;;;;;5.47;4.60;;;23.80;62.80;;;;;;10322258;28;20484;-57
2023/06/19 10:54:39;;;;;;;6.88;4.95;;;23.90;62.60;;;;;;10323664;28;20037;-56
2023/06/19 10:59:40;;;;;;;7.47;5.13;;;23.90;62.70;;;;;;10323124;28;20050;-56
2023/06/19 11:04:40;;;;;;;6.85;5.22;;;23.80;62.40;;;;;;10323042;28;20105;-56
2023/06/19 11:09:42;;;;;;;12.10;5.90;;;23.80;62.60;;;;;;10323172;28;20373;-56
2023/06/19 11:14:43;;;;;;;11.13;5.45;;;23.80;62.60;;;;;;10321801;28;20474;-56
2023/06/19 11:19:44;;;;;;;7.93;6.43;;;23.80;62.70;;;;;;10322351;28;20526;-58
2023/06/19 11:24:48;;;;;;;16.30;8.20;;;23.90;63.70;;;;;;10320900;28;20510;-58
2023/06/19 11:29:56;;;;;;;8.65;5.68;;;24.00;63.40;;;;;;10320459;28;20470;-58
2023/06/19 11:35:04;;;;;;;10.63;6.60;;;24.00;62.30;;;;;;10320387;28;20458;-56
2023/06/19 11:40:20;;;;;;;8.63;6.15;;;23.90;62.40;;;;;;10320383;28;20058;-57
2023/06/19 11:45:21;;;;;;;5.65;4.70;;;23.90;62.40;;;;;;10319887;28;20045;-59
2023/06/19 11:50:27;;;;;;;9.57;6.00;;;23.90;62.40;;;;;;10320823;28;20521;-57
2023/06/19 11:55:28;;;;;;;7.47;5.22;;;23.90;62.20;;;;;;10319673;28;20470;-55
2023/06/19 12:00:29;;;;;;;7.97;5.95;;;23.90;62.30;;;;;;10320474;28;20118;-57
2023/06/19 12:05:29;;;;;;;5.95;5.10;;;23.90;62.20;;;;;;10319479;28;20010;-57
2023/06/19 12:10:31;;;;;;;7.28;5.50;;;23.90;62.20;;;;;;10318964;28;20058;-57
2023/06/19 12:15:32;;;;;;;10.85;6.05;;;23.90;62.10;;;;;;10320234;28;20022;-60
2023/06/19 12:20:33;;;;;;;18.23;6.57;;;23.90;62.10;;;;;;10320591;28;20402;-57
2023/06/19 12:25:33;;;;;;;10.88;5.47;;;23.90;62.00;;;;;;10302404;28;20021;-61
2023/06/19 12:30:36;;;;;;;19.58;7.75;;;24.00;61.70;;;;;;10302374;28;20101;-57
2023/06/19 12:35:43;;;;;;;22.42;6.57;;;24.00;61.80;;;;;;10316640;28;20315;-59
2023/06/19 12:40:44;;;;;;;12.35;6.65;;;24.00;61.70;;;;;;10308632;28;20034;-60
2023/06/19 12:45:46;;;;;;;17.52;6.00;;;24.00;61.80;;;;;;10318727;28;20227;-60
2023/06/19 12:50:46;;;;;;;14.20;6.30;;;23.90;61.60;;;;;;10319102;28;20018;-59
2023/06/19 12:55:47;;;;;;;14.68;7.25;;;23.90;61.50;;;;;;10317239;28;20106;-60
2023/06/19 13:00:48;;;;;;;7.93;5.55;;;23.90;61.40;;;;;;10318466;28;20129;-60
2023/06/19 13:05:48;;;;;;;9.02;6.65;;;24.00;61.20;;;;;;10316958;28;20018;-61
2023/06/19 13:10:49;;;;;;;9.45;6.78;;;23.90;61.10;;;;;;10317814;28;20022;-59
2023/06/19 13:15:50;;;;;;;11.02;6.88;;;24.00;61.10;;;;;;10317766;28;20121;-60
2023/06/19 13:20:50;;;;;;;9.98;6.10;;;24.00;60.80;;;;;;10319086;28;20382;-60
2023/06/19 13:25:51;;;;;;;9.77;5.80;;;24.00;60.90;;;;;;10317164;28;20110;-58
2023/06/19 13:30:52;;;;;;;8.32;5.75;;;24.00;60.80;;;;;;10317533;28;20026;-58
2023/06/19 13:35:52;;;;;;;9.85;6.93;;;24.00;60.80;;;;;;10316890;28;20085;-60
2023/06/19 13:40:53;;;;;;;8.15;5.47;;;24.00;60.80;;;;;;10317520;28;20022;-59
2023/06/19 13:45:54;;;;;;;7.57;5.35;;;24.00;60.70;;;;;;10318168;28;20117;-60
2023/06/19 13:50:54;;;;;;;9.07;5.50;;;24.00;60.70;;;;;;10317334;28;20228;-60
2023/06/19 13:55:55;;;;;;;8.88;6.18;;;24.00;60.70;;;;;;10316955;28;20553;-60
2023/06/19 14:00:56;;;;;;;12.43;6.45;;;24.00;60.60;;;;;;10324955;28;20038;-61
2023/06/19 14:05:57;;;;;;;13.13;7.30;;;24.00;60.70;;;;;;10307790;28;20022;-61
2023/06/19 14:10:58;;;;;;;15.07;6.72;;;24.10;61.10;;;;;;10323888;28;20027;-58
2023/06/19 14:15:59;;;;;;;12.95;7.65;;;24.10;61.40;;;;;;10323899;28;20034;-63
2023/06/19 14:20:59;;;;;;;17.00;7.47;;;24.30;61.40;;;;;;10323256;28;20037;-63
2023/06/19 14:26:00;;;;;;;18.27;7.57;;;24.30;62.40;;;;;;10324965;28;20105;-60
2023/06/19 14:31:01;;;;;;;10.10;6.65;;;24.50;61.20;;;;;;10322711;28;20108;-63
2023/06/19 14:36:02;;;;;;;13.10;6.75;;;24.50;61.70;;;;;;10323889;28;20133;-58
2023/06/19 14:41:03;;;;;;;13.32;7.07;;;24.50;61.60;;;;;;10325090;28;20026;-61
2023/06/19 14:46:05;;;;;;;16.50;8.13;;;24.40;61.20;;;;;;10309025;28;20026;-61
2023/06/19 14:51:05;;;;;;;15.55;10.43;;;24.40;60.70;;;;;;10325378;28;20027;-60
2023/06/19 14:56:06;;;;;;;13.07;8.82;;;24.40;60.70;;;;;;10325838;28;20030;-61
2023/06/19 15:01:07;;;;;;;19.58;8.10;;;24.40;60.30;;;;;;10325570;28;20026;-60
2023/06/19 15:06:08;;;;;;;28.02;22.70;;;24.50;60.30;;;;;;10325438;28;20026;-60
2023/06/19 15:11:09;;;;;;;19.42;13.05;;;24.50;62.20;;;;;;10323787;28;20031;-61
2023/06/19 15:16:11;;;;;;;16.75;11.98;;;24.50;60.90;;;;;;10306152;28;20058;-59
2023/06/19 15:21:12;;;;;;;15.93;9.93;;;24.50;63.40;;;;;;10321531;28;20037;-59
2023/06/19 15:26:13;;;;;;;13.68;8.52;;;24.60;63.10;;;;;;10322713;28;20072;-58
2023/06/19 15:31:15;;;;;;;16.90;8.02;;;24.80;61.80;;;;;;10322059;28;20110;-58
2023/06/19 15:36:17;;;;;;;18.30;8.00;;;24.80;61.20;;;;;;10323156;28;20073;-58
2023/06/19 15:41:17;;;;;;;14.90;7.43;;;24.70;60.70;;;;;;10322549;28;20589;-61
2023/06/19 15:46:18;;;;;;;15.02;7.65;;;24.70;60.70;;;;;;10323627;28;20022;-58
2023/06/19 15:51:19;;;;;;;41.53;10.98;;;24.70;60.90;;;;;;10335360;28;20113;-59
2023/06/19 15:56:19;;;;;;;22.50;9.00;;;24.50;61.50;;;;;;10320561;28;20097;-57
2023/06/19 16:01:20;;;;;;;26.50;9.55;;;24.50;62.20;;;;;;10322640;28;20109;-60
2023/06/19 16:06:21;;;;;;;27.80;9.02;;;24.80;62.10;;;;;;10323454;28;20046;-63
2023/06/19 16:11:22;;;;;;;21.40;8.95;;;24.90;62.20;;;;;;10322515;28;20198;-60
2023/06/19 16:16:23;;;;;;;22.65;9.13;;;24.80;62.10;;;;;;10323099;28;20019;-61
2023/06/19 16:21:25;;;;;;;19.42;9.43;;;24.60;62.40;;;;;;10320749;28;20041;-57
2023/06/19 16:26:25;;;;;;;20.15;8.45;;;24.50;62.80;;;;;;10322481;28;21702;-60
2023/06/19 16:31:26;;;;;;;19.92;8.63;;;24.60;62.00;;;;;;10296845;28;20034;-59
2023/06/19 16:36:27;;;;;;;22.02;9.15;;;24.60;62.00;;;;;;10320096;28;20125;-59
2023/06/19 16:41:28;;;;;;;13.35;8.35;;;24.50;61.80;;;;;;10320612;28;20038;-60
2023/06/19 16:46:30;;;;;;;17.17;8.68;;;24.50;61.80;;;;;;10319800;28;20051;-57
2023/06/19 16:51:30;;;;;;;18.58;8.13;;;24.50;61.80;;;;;;10334862;28;20149;-60
2023/06/19 16:56:31;;;;;;;12.27;7.45;;;24.50;62.30;;;;;;10303180;28;20042;-60
2023/06/19 17:01:33;;;;;;;14.85;8.00;;;24.50;62.30;;;;;;10313246;28;20428;-60
2023/06/19 17:06:34;;;;;;;13.50;8.13;;;24.50;62.70;;;;;;10314102;28;20685;-60
2023/06/19 17:11:36;;;;;;;17.40;8.38;;;24.60;62.30;;;;;;10320589;28;20022;-58
2023/06/19 17:16:37;;;;;;;17.80;8.02;;;24.60;62.30;;;;;;10311558;28;20038;-59
2023/06/19 17:21:38;;;;;;;18.52;8.77;;;24.60;62.30;;;;;;10303903;28;20109;-58
2023/06/19 17:26:39;;;;;;;13.95;8.00;;;24.50;62.50;;;;;;10319621;28;20061;-59
2023/06/19 17:31:39;;;;;;;15.20;8.82;;;24.50;62.20;;;;;;10323264;28;20030;-59
2023/06/19 17:36:40;;;;;;;12.20;7.80;;;24.50;62.40;;;;;;10325187;28;20121;-58
2023/06/19 17:41:42;;;;;;;11.35;7.80;;;24.50;62.40;;;;;;10325274;28;20709;-56
2023/06/19 17:46:43;;;;;;;11.27;7.78;;;24.50;62.30;;;;;;10315581;28;20018;-60
2023/06/19 17:51:44;;;;;;;10.25;7.93;;;24.40;62.00;;;;;;10326659;28;20073;-58
2023/06/19 17:56:45;;;;;;;10.63;8.32;;;24.40;62.20;;;;;;10297191;28;20054;-58
2023/06/19 18:01:47;;;;;;;13.40;7.70;;;24.50;62.10;;;;;;10310197;28;20029;-58
2023/06/19 18:06:47;;;;;;;13.85;7.32;;;24.40;62.20;;;;;;10341807;28;20473;-59
2023/06/19 18:11:48;;;;;;;12.30;7.60;;;24.50;62.90;;;;;;10341395;28;20018;-59
2023/06/19 18:16:49;;;;;;;12.00;7.55;;;24.40;63.70;;;;;;10326162;28;20578;-55
2023/06/19 18:21:49;;;;;;;10.25;7.78;;;24.40;63.20;;;;;;10324897;28;20181;-59
2023/06/19 18:26:50;;;;;;;11.70;7.25;;;24.30;63.10;;;;;;10326281;28;20106;-60
2023/06/19 18:31:51;;;;;;;10.77;7.22;;;24.30;63.50;;;;;;10327275;28;20018;-59
2023/06/19 18:36:51;;;;;;;8.18;6.97;;;24.30;63.90;;;;;;10320625;28;20112;-59
2023/06/19 18:41:54;;;;;;;11.23;6.82;;;24.30;63.40;;;;;;10325248;28;20027;-60
2023/06/19 18:46:55;;;;;;;9.98;7.40;;;24.30;63.20;;;;;;10326442;28;20105;-58
2023/06/19 18:51:55;;;;;;;11.45;7.35;;;24.30;63.50;;;;;;10308149;28;20076;-60
2023/06/19 18:56:56;;;;;;;8.23;6.85;;;24.20;63.60;;;;;;10319910;28;20041;-59
2023/06/19 19:01:57;;;;;;;9.55;6.82;;;24.20;63.40;;;;;;10321625;28;20097;-59
2023/06/19 19:06:57;;;;;;;8.15;6.68;;;24.20;63.30;;;;;;10312418;28;20711;-60
2023/06/19 19:11:58;;;;;;;8.70;7.10;;;24.20;63.20;;;;;;10318691;28;20057;-60
2023/06/19 19:16:59;;;;;;;9.82;7.07;;;24.20;62.80;;;;;;10315467;28;20493;-60
2023/06/19 19:21:59;;;;;;;8.05;7.00;;;24.20;63.00;;;;;;10320201;28;20164;-61
2023/06/19 19:27:00;;;;;;;10.98;9.75;;;24.20;63.00;;;;;;10316083;28;20048;-59
2023/06/19 19:32:01;;;;;;;8.55;7.65;;;24.20;63.10;;;;;;10322056;28;20027;-58
2023/06/19 19:37:01;;;;;;;9.15;7.10;;;24.20;63.20;;;;;;10324080;28;20096;-60
2023/06/19 19:42:02;;;;;;;11.80;7.70;;;24.30;63.50;;;;;;10323082;28;20468;-59
2023/06/19 19:47:03;;;;;;;8.73;7.13;;;24.30;62.90;;;;;;10319470;28;20480;-58
2023/06/19 19:52:05;;;;;;;12.25;7.03;;;24.20;62.90;;;;;;10304532;28;20025;-59
2023/06/19 19:57:06;;;;;;;10.68;7.15;;;24.20;63.10;;;;;;10315833;28;20828;-59
2023/06/19 20:02:10;;;;;;;10.48;7.22;;;24.10;63.30;;;;;;10325097;28;20512;-61
2023/06/19 20:07:10;;;;;;;9.18;7.32;;;24.10;63.20;;;;;;10327422;28;20032;-59
2023/06/19 20:12:11;;;;;;;8.13;7.22;;;24.20;63.20;;;;;;10324118;28;20034;-59
2023/06/19 20:17:12;;;;;;;8.43;7.10;;;24.10;63.10;;;;;;10321726;28;20109;-58
2023/06/19 20:22:13;;;;;;;9.32;8.00;;;24.10;63.10;;;;;;10321706;28;20011;-58
2023/06/19 20:27:15;;;;;;;8.93;7.38;;;24.10;63.00;;;;;;10321831;28;20018;-59
2023/06/19 20:32:16;;;;;;;10.75;7.03;;;24.10;63.20;;;;;;10322404;28;20347;-59
2023/06/19 20:37:17;;;;;;;7.63;6.85;;;24.10;63.10;;;;;;10323028;28;20125;-59
2023/06/19 20:42:18;;;;;;;8.88;7.15;;;24.10;63.30;;;;;;10318369;28;20125;-58
2023/06/19 20:47:19;;;;;;;10.55;8.15;;;24.10;62.80;;;;;;10324284;28;20466;-59
2023/06/19 20:52:20;;;;;;;8.13;6.95;;;24.00;62.50;;;;;;10307497;28;20038;-60
2023/06/19 20:57:20;;;;;;;9.50;7.63;;;24.10;62.80;;;;;;10323357;28;20489;-59
2023/06/19 21:02:21;;;;;;;8.35;6.82;;;24.10;62.50;;;;;;10318314;28;20528;-58
2023/06/19 21:07:22;;;;;;;8.48;7.57;;;24.00;62.50;;;;;;10297074;28;20128;-59
2023/06/19 21:12:23;;;;;;;7.75;6.70;;;24.00;62.30;;;;;;10332010;28;20109;-59
2023/06/19 21:17:24;;;;;;;8.00;7.20;;;24.00;62.20;;;;;;10331420;28;20018;-59
2023/06/19 21:22:24;;;;;;;8.82;7.45;;;24.00;62.20;;;;;;10331701;28;20113;-58
2023/06/19 21:27:25;;;;;;;9.27;7.03;;;24.00;62.20;;;;;;10331235;28;20466;-60
2023/06/19 21:32:26;;;;;;;9.00;7.10;;;24.00;62.10;;;;;;10329984;28;20101;-60
2023/06/19 21:37:26;;;;;;;7.78;7.00;;;24.00;62.10;;;;;;10330869;28;20039;-61
2023/06/19 21:42:27;;;;;;;8.15;7.30;;;24.00;62.10;;;;;;10330695;28;20101;-59
2023/06/19 21:47:28;;;;;;;7.95;7.15;;;24.00;62.10;;;;;;10330844;28;20073;-60
2023/06/19 21:52:28;;;;;;;8.85;6.88;;;24.00;62.10;;;;;;10330218;28;20097;-59
2023/06/19 21:57:29;;;;;;;7.38;6.68;;;24.00;62.10;;;;;;10330438;28;20066;-59
2023/06/19 22:02:30;;;;;;;7.03;6.00;;;24.00;62.00;;;;;;10328898;28;20157;-59
2023/06/19 22:07:30;;;;;;;8.52;6.60;;;24.00;61.90;;;;;;10328503;28;20629;-58
2023/06/19 22:12:31;;;;;;;7.97;7.00;;;24.00;62.60;;;;;;10329130;28;20023;-58
2023/06/19 22:17:32;;;;;;;7.18;6.30;;;23.90;61.90;;;;;;10314996;28;20102;-58
2023/06/19 22:22:33;;;;;;;7.10;6.40;;;23.90;61.80;;;;;;10328077;28;20382;-57
2023/06/19 22:27:34;;;;;;;8.07;7.25;;;23.90;61.80;;;;;;10326704;28;20026;-57
2023/06/19 22:32:34;;;;;;;7.57;6.50;;;23.90;61.70;;;;;;10328899;28;20390;-58
2023/06/19 22:37:35;;;;;;;8.48;7.47;;;23.90;61.70;;;;;;10327533;28;20442;-57
2023/06/19 22:42:39;;;;;;;6.60;5.90;;;23.90;61.70;;;;;;10328521;28;20025;-58
2023/06/19 22:47:40;;;;;;;7.40;6.70;;;23.90;61.70;;;;;;10321516;28;20417;-58
2023/06/19 22:52:41;;;;;;;7.45;5.93;;;23.90;61.60;;;;;;10328238;28;20080;-58
2023/06/19 22:57:41;;;;;;;7.82;7.03;;;23.90;61.70;;;;;;10327720;28;20037;-57
2023/06/19 23:02:44;;;;;;;7.85;7.05;;;23.90;61.70;;;;;;10326440;28;20019;-58
2023/06/19 23:07:44;;;;;;;6.85;6.15;;;23.90;61.70;;;;;;10327609;28;20022;-57
2023/06/19 23:12:45;;;;;;;9.35;6.03;;;23.90;61.50;;;;;;10285080;28;20052;-57
2023/06/19 23:17:46;;;;;;;6.88;6.03;;;23.90;61.40;;;;;;10298386;28;20125;-56
2023/06/19 23:22:49;;;;;;;8.50;5.97;;;23.90;61.30;;;;;;10326939;28;20057;-58
2023/06/19 23:27:50;;;;;;;7.15;5.93;;;23.90;61.20;;;;;;10326548;28;20026;-58
2023/06/19 23:32:50;;;;;;;6.78;5.53;;;23.90;61.20;;;;;;10318618;28;20102;-57
2023/06/19 23:37:51;;;;;;;7.70;6.70;;;23.90;61.30;;;;;;10326303;28;20070;-58
2023/06/19 23:42:53;;;;;;;6.35;5.75;;;23.90;61.10;;;;;;10295588;28;20661;-59
2023/06/19 23:47:54;;;;;;;7.60;6.05;;;23.90;61.00;;;;;;10326226;28;20126;-56
2023/06/19 23:52:54;;;;;;;7.45;5.90;;;23.90;60.80;;;;;;10322240;28;20038;-58
2023/06/19 23:57:55;;;;;;;5.47;4.97;;;23.90;60.70;;;;;;10324561;28;20027;-56
